createdAt,value
2019-01-26T00:01:21.493Z,130.67
2019-01-26T00:03:50.878Z,134.57
2019-01-26T00:06:20.379Z,137.30
2019-01-26T00:08:49.804Z,127.70
2019-01-26T00:11:19.238Z,134.63
2019-01-26T00:13:48.640Z,134.30
2019-01-26T00:16:21.128Z,139.77
2019-01-26T00:18:49.297Z,129.90
2019-01-26T00:21:18.775Z,121.97
2019-01-26T00:23:48.183Z,124.30
2019-01-26T00:26:17.565Z,126.57
2019-01-26T00:28:47.857Z,131.27
2019-01-26T00:31:17.431Z,131.43
2019-01-26T00:33:46.889Z,121.33
2019-01-26T00:36:16.337Z,128.30
2019-01-26T00:38:45.848Z,125.40
2019-01-26T00:41:15.384Z,116.83
2019-01-26T00:43:44.901Z,116.80
2019-01-26T00:46:14.390Z,124.53
2019-01-26T00:48:43.783Z,116.60
2019-01-26T00:51:17.101Z,126.83
2019-01-26T00:53:44.454Z,114.30
2019-01-26T00:56:13.857Z,117.83
2019-01-26T00:58:43.409Z,117.97
2019-01-26T01:01:12.889Z,121.10
2019-01-26T01:03:42.537Z,118.63
2019-01-26T01:06:12.031Z,118.57
2019-01-26T01:08:41.409Z,119.10
2019-01-26T01:11:10.902Z,126.23
2019-01-26T01:13:40.374Z,114.20
2019-01-26T01:16:09.769Z,120.47
2019-01-26T01:18:39.217Z,111.80
2019-01-26T01:21:08.681Z,115.43
2019-01-26T01:23:38.222Z,113.53
2019-01-26T01:26:07.647Z,110.50
2019-01-26T01:28:37.039Z,114.77
2019-01-26T01:31:06.473Z,115.77
2019-01-26T01:33:35.937Z,105.43
2019-01-26T01:36:05.485Z,107.73
2019-01-26T01:38:34.870Z,121.33
2019-01-26T01:41:04.352Z,116.07
2019-01-26T01:43:33.858Z,109.70
2019-01-26T01:46:03.278Z,101.63
2019-01-26T01:48:34.513Z,105.03
2019-01-26T01:51:04.000Z,111.40
2019-01-26T01:53:33.382Z,107.33
2019-01-26T01:56:02.952Z,111.17
2019-01-26T01:58:32.426Z,105.27
2019-01-26T02:01:02.038Z,114.07
2019-01-26T02:03:32.112Z,110.50
2019-01-26T02:06:01.568Z,111.03
2019-01-26T02:08:31.047Z,108.83
2019-01-26T02:11:00.537Z,119.67
2019-01-26T02:13:29.946Z,102.57
2019-01-26T02:15:59.396Z,104.93
2019-01-26T02:18:28.877Z,105.77
2019-01-26T02:20:58.390Z,108.80
2019-01-26T02:23:27.814Z,111.53
2019-01-26T02:25:57.227Z,108.60
2019-01-26T02:28:26.647Z,98.93
2019-01-26T02:30:56.184Z,103.20
2019-01-26T02:33:27.257Z,108.50
2019-01-26T02:35:56.782Z,112.37
2019-01-26T02:38:26.169Z,107.50
2019-01-26T02:40:55.654Z,102.60
2019-01-26T02:43:25.059Z,101.87
2019-01-26T02:45:54.471Z,110.20
2019-01-26T02:48:23.917Z,109.47
2019-01-26T02:50:53.389Z,112.63
2019-01-26T02:53:22.851Z,98.17
2019-01-26T02:55:52.222Z,110.20
2019-01-26T02:58:21.745Z,109.87
2019-01-26T03:00:51.174Z,116.37
2019-01-26T03:03:20.599Z,106.37
2019-01-26T03:05:50.542Z,122.27
2019-01-26T03:08:20.047Z,120.60
2019-01-26T03:10:49.451Z,121.30
2019-01-26T03:13:18.945Z,122.63
2019-01-26T03:15:48.439Z,122.13
2019-01-26T03:18:17.924Z,120.67
2019-01-26T03:20:47.407Z,123.33
2019-01-26T03:23:17.209Z,123.73
2019-01-26T03:25:46.713Z,121.50
2019-01-26T03:28:16.107Z,113.80
2019-01-26T03:30:46.497Z,112.47
2019-01-26T03:33:16.039Z,124.80
2019-01-26T03:35:45.527Z,116.23
2019-01-26T03:38:15.039Z,116.20
2019-01-26T03:40:44.453Z,120.30
2019-01-26T03:43:13.975Z,128.17
2019-01-26T03:45:43.461Z,125.20
2019-01-26T03:48:12.839Z,118.50
2019-01-26T03:50:42.305Z,133.17
2019-01-26T03:53:11.728Z,127.67
2019-01-26T03:55:41.109Z,120.83
2019-01-26T03:58:10.572Z,117.77
2019-01-26T04:00:40.046Z,122.13
2019-01-26T04:03:09.623Z,138.17
2019-01-26T04:05:39.503Z,119.37
2019-01-26T04:08:09.057Z,124.63
2019-01-26T04:10:38.658Z,121.57
2019-01-26T04:13:08.117Z,126.13
2019-01-26T04:15:38.417Z,129.37
2019-01-26T04:18:07.936Z,124.20
2019-01-26T04:20:37.926Z,133.40
2019-01-26T04:23:07.489Z,134.33
2019-01-26T04:25:38.656Z,120.03
2019-01-26T04:28:11.418Z,120.43
2019-01-26T04:30:40.837Z,127.67
2019-01-26T04:33:10.295Z,135.73
2019-01-26T04:35:39.719Z,122.83
2019-01-26T04:38:09.186Z,125.80
2019-01-26T04:40:38.696Z,126.60
2019-01-26T04:43:08.222Z,122.53
2019-01-26T04:45:37.661Z,112.43
2019-01-26T04:48:07.406Z,115.57
2019-01-26T04:50:36.961Z,115.00
2019-01-26T04:53:06.406Z,117.07
2019-01-26T04:55:35.887Z,114.70
2019-01-26T04:58:05.883Z,113.53
2019-01-26T05:00:35.278Z,106.63
2019-01-26T05:03:04.841Z,107.50
2019-01-26T05:05:34.242Z,101.03
2019-01-26T05:08:03.724Z,105.77
2019-01-26T05:10:33.159Z,95.63
2019-01-26T05:13:02.674Z,101.63
2019-01-26T05:15:32.139Z,103.80
2019-01-26T05:18:01.627Z,108.00
2019-01-26T05:20:31.114Z,108.97
2019-01-26T05:23:00.677Z,99.70
2019-01-26T05:25:30.093Z,104.27
2019-01-26T05:27:59.502Z,110.30
2019-01-26T05:30:29.257Z,98.90
2019-01-26T05:32:58.757Z,119.77
2019-01-26T05:35:28.207Z,108.50
2019-01-26T05:37:57.773Z,103.67
2019-01-26T05:40:27.238Z,109.17
2019-01-26T05:42:56.757Z,105.87
2019-01-26T05:45:26.294Z,102.03
2019-01-26T05:47:55.751Z,114.47
2019-01-26T05:50:25.832Z,103.07
2019-01-26T05:52:55.623Z,104.37
2019-01-26T05:55:25.143Z,98.90
2019-01-26T05:57:54.644Z,109.97
2019-01-26T06:00:27.540Z,105.50
2019-01-26T06:02:57.127Z,114.77
2019-01-26T06:05:26.850Z,103.77
2019-01-26T06:07:56.260Z,106.57
2019-01-26T06:10:25.700Z,103.03
2019-01-26T06:12:55.173Z,106.93
2019-01-26T06:15:24.680Z,106.57
2019-01-26T06:17:55.112Z,102.97
2019-01-26T06:20:25.003Z,105.10
2019-01-26T06:22:54.439Z,109.90
2019-01-26T06:25:23.898Z,113.37
2019-01-26T06:27:53.339Z,119.37
2019-01-26T06:30:24.370Z,107.30
2019-01-26T06:32:53.837Z,120.57
2019-01-26T06:35:23.237Z,120.53
2019-01-26T06:37:52.697Z,122.67
2019-01-26T06:40:22.210Z,115.47
2019-01-26T06:42:53.387Z,128.97
2019-01-26T06:45:23.024Z,120.27
2019-01-26T06:47:52.542Z,123.27
2019-01-26T06:50:24.595Z,120.73
2019-01-26T06:52:54.047Z,118.93
2019-01-26T06:55:23.611Z,123.53
2019-01-26T06:57:53.083Z,116.40
2019-01-26T07:00:26.421Z,128.00
2019-01-26T07:02:56.074Z,121.60
2019-01-26T07:05:29.826Z,125.40
2019-01-26T07:07:59.391Z,122.27
2019-01-26T07:10:28.863Z,116.27
2019-01-26T07:12:58.337Z,126.03
2019-01-26T07:15:27.893Z,122.70
2019-01-26T07:17:57.347Z,126.80
2019-01-26T07:20:26.769Z,138.60
2019-01-26T07:22:56.293Z,135.40
2019-01-26T07:25:25.719Z,123.07
2019-01-26T07:27:55.184Z,124.43
2019-01-26T07:30:25.865Z,141.87
2019-01-26T07:32:55.363Z,134.93
2019-01-26T07:35:24.859Z,130.90
2019-01-26T07:37:54.443Z,124.53
2019-01-26T07:40:24.999Z,122.27
2019-01-26T07:42:54.459Z,126.23
2019-01-26T07:45:24.345Z,126.77
2019-01-26T07:47:53.838Z,139.93
2019-01-26T07:50:25.717Z,122.23
2019-01-26T07:52:55.320Z,127.67
2019-01-26T07:55:24.826Z,130.70
2019-01-26T07:57:54.358Z,122.03
2019-01-26T08:00:27.796Z,124.27
2019-01-26T08:02:57.408Z,117.83
2019-01-26T08:05:27.024Z,110.43
2019-01-26T08:07:56.519Z,105.03
2019-01-26T08:10:26.762Z,106.83
2019-01-26T08:12:56.194Z,111.10
2019-01-26T08:15:28.192Z,99.93
2019-01-26T08:17:57.656Z,100.47
2019-01-26T08:20:27.209Z,97.70
2019-01-26T08:22:56.710Z,99.37
2019-01-26T08:25:26.274Z,92.73
2019-01-26T08:27:55.883Z,87.53
2019-01-26T08:30:25.542Z,81.80
2019-01-26T08:32:54.992Z,77.37
2019-01-26T08:35:24.424Z,77.70
2019-01-26T08:37:54.207Z,77.93
2019-01-26T08:40:23.827Z,73.27
2019-01-26T08:42:53.201Z,76.17
2019-01-26T08:45:22.672Z,59.93
2019-01-26T08:47:52.103Z,65.57
2019-01-26T08:50:23.349Z,60.20
2019-01-26T08:52:52.879Z,64.67
2019-01-26T08:55:22.354Z,59.53
2019-01-26T08:57:51.836Z,57.17
2019-01-26T09:00:23.947Z,61.30
2019-01-26T09:02:55.771Z,54.93
2019-01-26T09:05:42.106Z,58.40
2019-01-26T09:08:11.554Z,59.07
2019-01-26T09:10:41.051Z,57.90
2019-01-26T09:13:10.629Z,58.17
2019-01-26T09:15:40.188Z,54.17
2019-01-26T09:18:09.684Z,56.17
2019-01-26T09:20:40.894Z,51.93
2019-01-26T09:23:10.455Z,56.57
2019-01-26T09:25:39.906Z,48.47
2019-01-26T09:28:10.208Z,51.10
2019-01-26T09:30:40.046Z,49.27
2019-01-26T09:33:09.594Z,42.47
2019-01-26T09:35:39.258Z,52.93
2019-01-26T09:38:08.758Z,47.63
2019-01-26T09:40:38.392Z,49.90
2019-01-26T09:43:07.986Z,52.80
2019-01-26T09:45:37.432Z,51.03
2019-01-26T09:48:07.238Z,43.67
2019-01-26T09:50:36.863Z,46.10
2019-01-26T09:53:06.450Z,45.73
2019-01-26T09:55:35.913Z,45.23
2019-01-26T09:58:06.716Z,45.53
2019-01-26T10:00:36.261Z,47.43
2019-01-26T10:03:05.866Z,48.87
2019-01-26T10:05:35.328Z,50.03
2019-01-26T10:08:04.912Z,45.03
2019-01-26T10:10:34.374Z,53.53
2019-01-26T10:13:03.953Z,49.53
2019-01-26T10:15:33.465Z,46.43
2019-01-26T10:18:03.024Z,43.67
2019-01-26T10:20:38.512Z,46.67
2019-01-26T10:23:07.907Z,42.90
2019-01-26T10:25:37.553Z,37.93
2019-01-26T10:28:07.392Z,44.00
2019-01-26T10:30:43.989Z,37.27
2019-01-26T10:33:13.474Z,35.77
2019-01-26T10:35:53.836Z,31.53
2019-01-26T10:38:23.328Z,28.60
2019-01-26T10:40:54.416Z,33.50
2019-01-26T10:43:40.358Z,31.57
2019-01-26T10:46:09.900Z,25.77
2019-01-26T10:48:39.582Z,19.90
2019-01-26T10:51:08.974Z,21.07
2019-01-26T10:53:40.214Z,20.47
2019-01-26T10:56:09.608Z,20.67
2019-01-26T10:58:39.152Z,19.10
2019-01-26T11:01:08.602Z,22.03
2019-01-26T11:03:38.062Z,16.33
2019-01-26T11:06:07.603Z,16.67
2019-01-26T11:08:37.048Z,20.37
2019-01-26T11:11:06.553Z,19.83
2019-01-26T11:13:36.050Z,14.67
2019-01-26T11:16:05.623Z,15.53
2019-01-26T11:18:35.171Z,11.50
2019-01-26T11:21:04.705Z,14.13
2019-01-26T11:23:34.274Z,10.80
2019-01-26T11:26:03.798Z,9.47
2019-01-26T11:28:33.235Z,10.67
2019-01-26T11:31:03.848Z,7.40
2019-01-26T11:33:33.416Z,8.40
2019-01-26T11:36:02.950Z,9.13
2019-01-26T11:38:32.511Z,9.53
2019-01-26T11:41:01.952Z,7.63
2019-01-26T11:43:31.586Z,8.03
2019-01-26T11:46:08.312Z,8.50
2019-01-26T11:48:39.439Z,11.03
2019-01-26T11:51:16.889Z,8.33
2019-01-26T11:53:46.326Z,9.57
2019-01-26T11:56:20.234Z,7.90
2019-01-26T11:58:49.702Z,8.63
2019-01-26T12:01:20.884Z,5.63
2019-01-26T12:03:52.050Z,6.83
2019-01-26T12:06:23.703Z,7.43
2019-01-26T12:08:53.252Z,8.87
2019-01-26T12:11:22.656Z,10.20
2019-01-26T12:13:52.112Z,12.20
2019-01-26T12:16:26.922Z,8.57
2019-01-26T12:18:52.706Z,7.13
2019-01-26T12:21:22.090Z,7.70
2019-01-26T12:23:51.559Z,9.93
2019-01-26T12:26:21.174Z,9.43
2019-01-26T12:28:50.565Z,9.47
2019-01-26T12:31:20.024Z,9.20
2019-01-26T12:33:49.499Z,8.27
2019-01-26T12:36:20.677Z,8.97
2019-01-26T12:38:50.174Z,9.67
2019-01-26T12:41:19.681Z,10.07
2019-01-26T12:43:49.245Z,10.20
2019-01-26T12:46:18.776Z,11.17
2019-01-26T12:48:48.259Z,10.23
2019-01-26T12:51:17.742Z,13.20
2019-01-26T12:53:47.244Z,14.50
2019-01-26T12:56:16.744Z,9.60
2019-01-26T12:58:46.167Z,9.97
2019-01-26T13:01:15.652Z,11.40
2019-01-26T13:03:45.130Z,12.30
2019-01-26T13:06:14.754Z,8.80
2019-01-26T13:08:44.832Z,10.27
2019-01-26T13:11:17.386Z,12.40
2019-01-26T13:13:46.965Z,13.47
2019-01-26T13:16:16.708Z,11.83
2019-01-26T13:18:46.318Z,10.27
2019-01-26T13:21:15.752Z,11.70
2019-01-26T13:23:45.222Z,13.67
2019-01-26T13:26:14.794Z,10.67
2019-01-26T13:28:44.369Z,12.17
2019-01-26T13:31:13.974Z,10.90
2019-01-26T13:33:43.448Z,10.20
2019-01-26T13:36:12.953Z,13.63
2019-01-26T13:38:42.420Z,9.67
2019-01-26T13:41:11.898Z,10.80
2019-01-26T13:43:41.459Z,11.27
2019-01-26T13:46:11.049Z,11.17
2019-01-26T13:48:40.524Z,11.27
2019-01-26T13:51:13.092Z,11.43
2019-01-26T13:53:41.292Z,10.17
2019-01-26T13:56:10.860Z,12.03
2019-01-26T13:58:40.376Z,10.37
2019-01-26T14:01:10.006Z,11.60
2019-01-26T14:03:41.244Z,13.47
2019-01-26T14:06:11.182Z,12.30
2019-01-26T14:08:41.472Z,13.10
2019-01-26T14:11:11.020Z,12.53
2019-01-26T14:13:40.484Z,12.23
2019-01-26T14:16:10.068Z,13.10
2019-01-26T14:18:39.668Z,14.63
2019-01-26T14:21:09.176Z,14.60
2019-01-26T14:23:38.710Z,15.73
2019-01-26T14:26:08.236Z,17.47
2019-01-26T14:28:37.830Z,15.93
2019-01-26T14:31:07.370Z,18.07
2019-01-26T14:33:36.978Z,17.77
2019-01-26T14:36:06.544Z,19.70
2019-01-26T14:38:36.024Z,21.63
2019-01-26T14:41:05.882Z,19.00
2019-01-26T14:43:35.468Z,19.80
2019-01-26T14:46:05.038Z,21.20
2019-01-26T14:48:34.438Z,20.60
2019-01-26T14:51:03.852Z,20.73
2019-01-26T14:53:33.382Z,18.40
2019-01-26T14:56:02.911Z,21.53
2019-01-26T14:58:32.440Z,20.20
2019-01-26T15:01:01.938Z,17.47
2019-01-26T15:03:31.501Z,19.17
2019-01-26T15:06:00.952Z,18.83
2019-01-26T15:08:30.542Z,22.10
2019-01-26T15:10:59.952Z,19.80
2019-01-26T15:13:29.362Z,19.83
2019-01-26T15:15:58.808Z,18.33
2019-01-26T15:18:28.441Z,18.03
2019-01-26T15:20:57.853Z,17.17
2019-01-26T15:23:27.460Z,18.87
2019-01-26T15:25:56.888Z,17.57
2019-01-26T15:28:26.367Z,19.30
2019-01-26T15:30:55.807Z,17.30
2019-01-26T15:33:25.334Z,18.30
2019-01-26T15:35:54.918Z,16.43
2019-01-26T15:38:24.286Z,16.53
2019-01-26T15:40:53.687Z,18.23
2019-01-26T15:43:24.467Z,18.93
2019-01-26T15:45:54.073Z,19.60
2019-01-26T15:48:23.506Z,20.37
2019-01-26T15:50:52.933Z,16.40
2019-01-26T15:53:24.058Z,14.93
2019-01-26T15:55:53.592Z,17.90
2019-01-26T15:58:23.122Z,16.17
2019-01-26T16:00:52.630Z,16.40
2019-01-26T16:03:22.012Z,15.70
2019-01-26T16:05:51.499Z,15.23
2019-01-26T16:08:21.190Z,18.13
2019-01-26T16:10:50.684Z,15.37
2019-01-26T16:13:20.151Z,14.97
2019-01-26T16:15:49.510Z,15.87
2019-01-26T16:18:19.034Z,14.67
2019-01-26T16:20:48.635Z,13.27
2019-01-26T16:23:18.055Z,14.33
2019-01-26T16:25:47.596Z,15.37
2019-01-26T16:28:16.977Z,13.87
2019-01-26T16:30:46.381Z,15.57
2019-01-26T16:33:15.854Z,19.37
2019-01-26T16:35:45.234Z,18.43
2019-01-26T16:38:14.772Z,15.93
2019-01-26T16:40:44.161Z,14.57
2019-01-26T16:43:13.633Z,17.03
2019-01-26T16:45:43.131Z,17.23
2019-01-26T16:48:12.744Z,15.37
2019-01-26T16:50:42.276Z,14.57
2019-01-26T16:53:11.803Z,16.03
2019-01-26T16:55:41.294Z,15.87
2019-01-26T16:58:10.844Z,19.93
2019-01-26T17:00:45.571Z,15.43
2019-01-26T17:03:15.141Z,15.00
2019-01-26T17:05:44.740Z,12.90
2019-01-26T17:08:14.209Z,16.30
2019-01-26T17:10:43.626Z,13.03
2019-01-26T17:13:13.223Z,12.83
2019-01-26T17:15:42.670Z,12.03
2019-01-26T17:18:13.810Z,12.80
2019-01-26T17:20:43.541Z,10.37
2019-01-26T17:23:12.941Z,10.23
2019-01-26T17:25:42.421Z,10.40
2019-01-26T17:28:11.950Z,9.03
2019-01-26T17:30:42.653Z,9.77
2019-01-26T17:33:12.099Z,11.07
2019-01-26T17:35:41.642Z,11.63
2019-01-26T17:38:11.267Z,12.37
2019-01-26T17:40:40.805Z,8.57
2019-01-26T17:43:10.331Z,9.00
2019-01-26T17:45:39.808Z,13.17
2019-01-26T17:48:09.381Z,10.07
2019-01-26T17:50:42.313Z,9.13
2019-01-26T17:53:09.867Z,9.67
2019-01-26T17:55:39.338Z,10.30
2019-01-26T17:58:08.724Z,10.93
2019-01-26T18:00:52.087Z,10.97
2019-01-26T18:03:21.582Z,11.77
2019-01-26T18:05:51.128Z,11.67
2019-01-26T18:08:20.549Z,11.53
2019-01-26T18:10:50.221Z,13.37
2019-01-26T18:13:19.795Z,12.47
2019-01-26T18:15:49.282Z,12.10
2019-01-26T18:18:18.745Z,10.73
2019-01-26T18:20:49.778Z,10.13
2019-01-26T18:23:20.888Z,10.70
2019-01-26T18:25:50.532Z,10.10
2019-01-26T18:28:19.981Z,9.67
2019-01-26T18:30:49.417Z,9.77
2019-01-26T18:33:18.911Z,8.90
2019-01-26T18:35:48.372Z,9.30
2019-01-26T18:38:17.888Z,8.37
2019-01-26T18:40:47.349Z,8.63
2019-01-26T18:43:16.889Z,16.07
2019-01-26T18:45:46.367Z,10.03
2019-01-26T18:48:15.922Z,8.07
2019-01-26T18:50:47.767Z,8.07
2019-01-26T18:53:17.241Z,9.23
2019-01-26T18:55:46.689Z,8.73
2019-01-26T18:58:16.171Z,9.57
2019-01-26T19:00:47.623Z,8.90
2019-01-26T19:03:20.085Z,9.83
2019-01-26T19:05:49.573Z,11.77
2019-01-26T19:08:18.990Z,8.27
2019-01-26T19:10:48.428Z,11.73
2019-01-26T19:13:17.950Z,7.77
2019-01-26T19:15:47.396Z,8.97
2019-01-26T19:18:16.901Z,7.53
2019-01-26T19:20:46.389Z,7.77
2019-01-26T19:23:15.823Z,8.17
2019-01-26T19:25:45.368Z,7.53
2019-01-26T19:28:14.734Z,7.67
2019-01-26T19:30:44.378Z,9.33
2019-01-26T19:33:13.951Z,7.43
2019-01-26T19:35:43.372Z,8.00
2019-01-26T19:38:12.895Z,7.17
2019-01-26T19:40:42.307Z,9.07
2019-01-26T19:43:11.740Z,8.07
2019-01-26T19:45:41.318Z,7.47
2019-01-26T19:48:10.743Z,7.73
2019-01-26T19:50:40.207Z,7.70
2019-01-26T19:53:09.606Z,6.73
2019-01-26T19:55:39.144Z,6.20
2019-01-26T19:58:08.767Z,7.80
2019-01-26T20:00:38.250Z,7.10
2019-01-26T20:03:07.792Z,7.43
2019-01-26T20:05:37.262Z,10.23
2019-01-26T20:08:07.588Z,7.03
2019-01-26T20:10:37.214Z,7.60
2019-01-26T20:13:06.713Z,5.90
2019-01-26T20:15:36.107Z,6.30
2019-01-26T20:18:05.621Z,6.30
2019-01-26T20:20:39.374Z,5.93
2019-01-26T20:23:08.916Z,6.83
2019-01-26T20:25:38.355Z,6.37
2019-01-26T20:28:12.262Z,7.43
2019-01-26T20:30:43.510Z,7.27
2019-01-26T20:33:14.655Z,6.30
2019-01-26T20:35:44.140Z,6.07
2019-01-26T20:38:13.594Z,5.83
2019-01-26T20:40:43.097Z,6.30
2019-01-26T20:43:12.601Z,6.30
2019-01-26T20:45:42.143Z,5.83
2019-01-26T20:48:11.551Z,6.00
2019-01-26T20:50:40.979Z,6.63
2019-01-26T20:53:10.517Z,6.00
2019-01-26T20:55:39.926Z,6.90
2019-01-26T20:58:09.391Z,6.90
2019-01-26T21:00:38.855Z,7.97
2019-01-26T21:03:08.242Z,7.40
2019-01-26T21:05:38.116Z,7.03
2019-01-26T21:08:07.742Z,7.73
2019-01-26T21:10:37.345Z,7.40
2019-01-26T21:13:06.865Z,7.90
2019-01-26T21:15:36.362Z,7.73
2019-01-26T21:18:05.820Z,7.60
2019-01-26T21:20:35.290Z,9.47
2019-01-26T21:23:05.123Z,8.20
2019-01-26T21:25:34.593Z,8.17
2019-01-26T21:28:04.375Z,8.03
2019-01-26T21:30:33.784Z,8.23
2019-01-26T21:33:03.209Z,8.13
2019-01-26T21:35:32.740Z,8.00
2019-01-26T21:38:02.338Z,6.83
2019-01-26T21:40:31.848Z,6.07
2019-01-26T21:43:01.600Z,6.80
2019-01-26T21:45:31.087Z,6.33
2019-01-26T21:48:00.498Z,7.07
2019-01-26T21:50:30.916Z,6.17
2019-01-26T21:53:00.308Z,6.00
2019-01-26T21:55:29.763Z,5.23
2019-01-26T21:57:59.212Z,5.67
2019-01-26T22:00:32.616Z,4.33
2019-01-26T22:03:02.096Z,5.93
2019-01-26T22:05:31.722Z,5.10
2019-01-26T22:08:01.175Z,4.03
2019-01-26T22:10:30.656Z,4.53
2019-01-26T22:13:00.123Z,4.03
2019-01-26T22:15:29.572Z,4.27
2019-01-26T22:17:59.062Z,4.33
2019-01-26T22:20:29.107Z,4.50
2019-01-26T22:22:58.943Z,26.80
2019-01-26T22:25:28.560Z,7.47
2019-01-26T22:27:58.145Z,5.17
2019-01-26T22:30:30.587Z,4.83
2019-01-26T22:33:00.296Z,4.73
2019-01-26T22:35:30.334Z,4.60
2019-01-26T22:37:59.716Z,4.70
2019-01-26T22:40:31.228Z,4.33
2019-01-26T22:43:00.918Z,5.63
2019-01-26T22:45:30.444Z,5.30
2019-01-26T22:47:59.955Z,4.60
2019-01-26T22:50:31.166Z,5.20
2019-01-26T22:53:02.436Z,4.70
2019-01-26T22:55:31.892Z,5.40
2019-01-26T22:58:01.411Z,5.70
2019-01-26T23:00:53.214Z,5.43
2019-01-26T23:03:25.966Z,6.03
2019-01-26T23:06:32.898Z,6.07
2019-01-26T23:09:11.616Z,6.60
2019-01-26T23:11:49.790Z,7.73
2019-01-26T23:14:37.010Z,6.60
2019-01-26T23:17:09.574Z,9.33
2019-01-26T23:19:45.180Z,7.40
2019-01-26T23:22:37.984Z,6.53
2019-01-26T23:25:25.399Z,7.60
2019-01-26T23:28:09.743Z,6.47
2019-01-26T23:31:10.612Z,5.93
2019-01-26T23:33:40.223Z,7.73
2019-01-26T23:36:09.756Z,8.90
2019-01-26T23:38:40.154Z,6.43
2019-01-26T23:41:09.798Z,7.00
2019-01-26T23:43:39.174Z,7.70
2019-01-26T23:46:08.678Z,7.17
2019-01-26T23:48:38.126Z,8.33
2019-01-26T23:51:07.734Z,6.33
2019-01-26T23:53:37.184Z,6.23
2019-01-26T23:56:06.796Z,7.57
2019-01-26T23:58:36.250Z,6.70
